Time;durP1;ratioP1;P1;durP2;ratioP2;P2;SDS_P1;SDS_P2;PMS_P1;PMS_P2;Temp;Humidity;BMP_temperature;BMP_pressure;BME280_temperature;BME280_humidity;BME280_pressure;Samples;Min_cycle;Max_cycle;Signal;HPM_P1;HPM_P2
2022/01/20 08:20:19;;;;;;;16.65;2.88;;;3.00;99.90;;;;;;5091804;27;20398;-62
2022/01/20 08:22:44;;;;;;;20.30;3.70;;;3.10;99.90;;;;;;5090196;28;20114;-60
2022/01/20 08:25:13;;;;;;;23.33;3.65;;;3.10;99.90;;;;;;5090242;28;20142;-64
2022/01/20 08:27:39;;;;;;;18.77;2.90;;;3.10;99.90;;;;;;5089606;28;20044;-62
2022/01/20 08:30:07;;;;;;;21.55;3.50;;;3.20;99.90;;;;;;5079315;28;20056;-61
2022/01/20 08:32:33;;;;;;;24.48;3.15;;;3.00;99.90;;;;;;5080443;28;20044;-61
2022/01/20 08:35:04;;;;;;;21.58;3.60;;;3.00;99.90;;;;;;5079290;28;20154;-61
2022/01/20 08:37:30;;;;;;;25.98;3.72;;;3.00;99.90;;;;;;5079731;28;20044;-62
2022/01/20 08:39:56;;;;;;;;;;;3.00;99.90;;;;;;5081365;28;20480;-60
2022/01/20 08:42:22;;;;;;;19.67;3.05;;;3.00;99.90;;;;;;5062203;28;19921;-62
2022/01/20 08:44:48;;;;;;;21.00;3.10;;;3.00;99.90;;;;;;5079618;28;20043;-63
2022/01/20 08:47:19;;;;;;;14.73;2.80;;;3.00;99.90;;;;;;5063273;28;20048;-61
2022/01/20 08:49:46;;;;;;;17.08;3.28;;;3.10;99.90;;;;;;5078667;28;20485;-61
2022/01/20 08:52:12;;;;;;;22.40;3.67;;;3.10;99.90;;;;;;5061352;28;20061;-61
2022/01/20 08:54:38;;;;;;;14.65;2.85;;;3.10;99.90;;;;;;5080785;28;20241;-61
2022/01/20 08:57:04;;;;;;;17.65;2.50;;;3.10;99.90;;;;;;5077232;28;20144;-61
2022/01/20 08:59:30;;;;;;;;;;;3.10;99.90;;;;;;5080047;28;20548;-63
2022/01/20 09:01:56;;;;;;;18.27;3.35;;;3.20;99.90;;;;;;5078521;28;19960;-61
2022/01/20 09:04:21;;;;;;;20.75;3.45;;;3.20;99.90;;;;;;5079286;28;20075;-61
2022/01/20 09:06:47;;;;;;;19.00;3.20;;;3.30;99.90;;;;;;5076621;28;20052;-60
2022/01/20 09:09:16;;;;;;;17.60;2.78;;;3.30;99.90;;;;;;5079085;28;20560;-62
2022/01/20 09:11:51;;;;;;;16.95;2.85;;;3.40;99.90;;;;;;5078071;28;20052;-61
2022/01/20 09:17:01;;;;;;;18.60;2.67;;;3.50;99.90;;;;;;5074448;28;20133;-62
2022/01/20 09:19:27;;;;;;;16.67;2.95;;;3.50;99.90;;;;;;5090079;28;20088;-61
2022/01/20 09:21:53;;;;;;;12.23;2.38;;;3.60;99.90;;;;;;5089929;28;20052;-62
2022/01/20 09:24:18;;;;;;;15.57;2.55;;;3.60;99.90;;;;;;5074957;28;20037;-61
2022/01/20 09:26:44;;;;;;;14.20;2.70;;;3.70;99.90;;;;;;5071694;28;20131;-60
2022/01/20 09:29:09;;;;;;;11.40;2.38;;;3.70;99.90;;;;;;5085046;28;20040;-59
2022/01/20 09:31:38;;;;;;;16.75;2.85;;;3.80;99.90;;;;;;5076122;28;20453;-61
2022/01/20 09:34:04;;;;;;;14.45;2.70;;;3.90;99.90;;;;;;5075333;28;20495;-61
2022/01/20 09:36:30;;;;;;;;;;;3.90;99.90;;;;;;5075858;28;20049;-61
2022/01/20 09:38:56;;;;;;;17.98;2.58;;;3.90;99.90;;;;;;5074318;28;19927;-61
2022/01/20 09:41:21;;;;;;;15.23;2.78;;;4.00;99.90;;;;;;5073301;28;20048;-61
2022/01/20 09:43:49;;;;;;;11.95;2.80;;;4.00;99.90;;;;;;5074342;28;20396;-61
2022/01/20 09:46:15;;;;;;;14.07;2.58;;;4.00;99.90;;;;;;5075566;28;20056;-61
2022/01/20 09:48:41;;;;;;;18.15;2.72;;;4.00;99.90;;;;;;5074354;28;20052;-61
2022/01/20 09:51:11;;;;;;;13.07;2.50;;;4.20;99.90;;;;;;5075679;28;20062;-61
2022/01/20 09:53:37;;;;;;;10.48;2.65;;;4.20;99.90;;;;;;5075865;28;20043;-61
2022/01/20 09:56:03;;;;;;;;;;;4.30;99.90;;;;;;5075520;28;20056;-60
2022/01/20 09:58:29;;;;;;;17.48;2.90;;;4.30;99.90;;;;;;5074788;28;19921;-60
2022/01/20 10:00:58;;;;;;;;;;;4.20;99.90;;;;;;5076088;28;20087;-61
2022/01/20 10:03:24;;;;;;;15.00;2.50;;;4.20;99.90;;;;;;5076408;28;19927;-61
2022/01/20 10:05:54;;;;;;;15.43;2.65;;;4.20;99.90;;;;;;5075394;28;20052;-61
2022/01/20 10:08:22;;;;;;;10.95;2.50;;;4.10;99.90;;;;;;5076508;28;20046;-60
2022/01/20 10:10:59;;;;;;;15.48;3.05;;;4.10;99.90;;;;;;5075727;28;20067;-62
2022/01/20 10:13:27;;;;;;;16.27;2.47;;;4.20;99.90;;;;;;5076279;28;20479;-61
2022/01/20 10:16:06;;;;;;;15.85;2.70;;;4.30;99.90;;;;;;5074783;28;20569;-61
2022/01/20 10:18:34;;;;;;;13.10;2.15;;;4.40;99.90;;;;;;5075383;28;20056;-61
2022/01/20 10:21:05;;;;;;;10.13;1.88;;;4.30;99.90;;;;;;5075121;28;20483;-61
2022/01/20 10:23:30;;;;;;;9.38;1.90;;;4.10;99.90;;;;;;5074787;28;20089;-61
2022/01/20 10:26:11;;;;;;;8.82;2.17;;;3.90;99.90;;;;;;5074024;28;20484;-61
2022/01/20 10:28:56;;;;;;;10.80;2.00;;;3.80;99.90;;;;;;5073528;28;20115;-61
2022/01/20 10:31:38;;;;;;;14.32;2.42;;;3.70;99.90;;;;;;5073925;28;20131;-61
2022/01/20 10:34:30;;;;;;;12.73;1.88;;;3.70;99.90;;;;;;5073404;28;20116;-62
2022/01/20 10:37:09;;;;;;;14.07;2.67;;;3.70;99.90;;;;;;5057517;28;20059;-62
2022/01/20 10:39:42;;;;;;;13.70;2.53;;;3.70;99.90;;;;;;5070125;28;20053;-61
2022/01/20 10:42:24;;;;;;;14.10;2.95;;;3.70;99.90;;;;;;5074101;28;20094;-62
2022/01/20 10:44:51;;;;;;;15.60;2.92;;;3.80;99.90;;;;;;5074953;28;20076;-62
2022/01/20 10:47:22;;;;;;;20.13;3.20;;;3.90;99.90;;;;;;5074941;28;20056;-62
2022/01/20 10:49:49;;;;;;;15.43;2.75;;;3.90;99.90;;;;;;5074942;28;20036;-62
2022/01/20 10:52:18;;;;;;;9.60;2.15;;;4.00;99.90;;;;;;5075410;28;20051;-62
2022/01/20 10:54:50;;;;;;;8.65;2.17;;;4.00;99.90;;;;;;5074906;28;20040;-63
2022/01/20 10:57:16;;;;;;;10.40;2.00;;;3.90;99.90;;;;;;5073773;28;20090;-62
2022/01/20 10:59:54;;;;;;;10.50;1.67;;;3.60;99.90;;;;;;5074633;28;20048;-61
2022/01/20 11:02:25;;;;;;;6.60;1.15;;;3.40;99.90;;;;;;5074668;28;20044;-63
2022/01/20 11:04:51;;;;;;;10.48;1.50;;;3.20;99.90;;;;;;5075126;28;20059;-61
2022/01/20 11:07:17;;;;;;;8.50;1.52;;;3.10;99.90;;;;;;5073619;28;20044;-62
2022/01/20 11:09:43;;;;;;;10.45;1.95;;;3.10;99.90;;;;;;5073264;28;20044;-61
2022/01/20 11:12:13;;;;;;;;;;;3.10;99.90;;;;;;5074908;28;20051;-62
2022/01/20 11:14:39;;;;;;;9.13;1.92;;;3.20;99.90;;;;;;5074177;28;19927;-61
2022/01/20 11:17:05;;;;;;;15.35;2.53;;;3.20;99.90;;;;;;5074412;28;20048;-61
2022/01/20 11:19:37;;;;;;;15.32;2.60;;;3.30;99.90;;;;;;5074428;28;20094;-62
2022/01/20 11:22:13;;;;;;;16.90;2.92;;;3.40;99.90;;;;;;5074262;28;20048;-62
2022/01/20 11:24:41;;;;;;;14.65;2.67;;;3.50;99.90;;;;;;5073434;28;20435;-61
2022/01/20 11:27:10;;;;;;;16.08;2.42;;;3.60;99.90;;;;;;5074212;28;20052;-61
2022/01/20 11:29:42;;;;;;;15.48;2.88;;;3.80;99.90;;;;;;5074043;28;20048;-61
2022/01/20 11:32:42;;;;;;;11.55;2.42;;;3.90;99.90;;;;;;5072951;28;20088;-61
2022/01/20 11:35:10;;;;;;;14.55;2.50;;;3.90;99.90;;;;;;5061937;28;20109;-62
2022/01/20 11:37:39;;;;;;;12.85;3.20;;;3.80;99.90;;;;;;5074052;28;20048;-62
2022/01/20 11:40:18;;;;;;;19.17;3.15;;;3.70;99.90;;;;;;5073865;28;20080;-61
2022/01/20 11:43:10;;;;;;;27.45;4.00;;;3.60;99.90;;;;;;5073982;28;20047;-61
2022/01/20 11:45:40;;;;;;;22.00;3.38;;;3.50;99.90;;;;;;5064724;28;20054;-60
2022/01/20 11:48:24;;;;;;;16.70;5.55;;;3.50;99.90;;;;;;5064392;28;20044;-58
2022/01/20 11:51:07;;;;;;;14.38;2.67;;;3.60;99.90;;;;;;5053786;28;20048;-61
2022/01/20 11:53:41;;;;;;;14.05;2.60;;;3.60;99.90;;;;;;5056465;28;20043;-60
2022/01/20 11:56:09;;;;;;;15.23;2.60;;;3.70;99.90;;;;;;5062684;28;20060;-61
2022/01/20 11:58:35;;;;;;;17.33;2.65;;;3.90;99.90;;;;;;5056272;28;20202;-60
2022/01/20 12:01:04;;;;;;;13.35;2.40;;;3.90;99.90;;;;;;5054558;28;20103;-61
2022/01/20 12:03:31;;;;;;;14.35;2.70;;;4.00;99.90;;;;;;5057762;28;20064;-62
2022/01/20 12:06:22;;;;;;;15.68;2.70;;;4.10;99.90;;;;;;5065085;28;20102;-62
2022/01/20 12:09:04;;;;;;;13.50;2.75;;;4.20;99.90;;;;;;5062157;28;20047;-62
2022/01/20 12:11:48;;;;;;;13.70;2.35;;;4.40;99.90;;;;;;5065326;28;20048;-61
2022/01/20 12:14:24;;;;;;;18.23;2.75;;;4.30;99.90;;;;;;5073726;28;20048;-61
2022/01/20 12:16:50;;;;;;;;;;;4.40;99.90;;;;;;5073883;28;20053;-63
2022/01/20 12:19:16;;;;;;;11.20;2.28;;;4.40;99.90;;;;;;5073594;28;19921;-60
2022/01/20 12:21:48;;;;;;;14.88;2.90;;;4.40;99.90;;;;;;5073577;28;20057;-60
2022/01/20 12:24:14;;;;;;;12.13;2.30;;;4.50;99.90;;;;;;5073486;28;20052;-61
2022/01/20 12:26:39;;;;;;;14.85;2.92;;;4.50;99.90;;;;;;5072922;28;20121;-60
2022/01/20 12:29:08;;;;;;;18.27;2.78;;;4.60;99.90;;;;;;5063346;28;20087;-62
2022/01/20 12:31:54;;;;;;;17.38;2.80;;;4.60;99.90;;;;;;5054744;28;20115;-62
2022/01/20 12:34:21;;;;;;;14.63;2.63;;;4.50;99.90;;;;;;5053341;28;20225;-61
2022/01/20 12:36:54;;;;;;;17.27;3.53;;;4.30;99.90;;;;;;5053219;28;20563;-61
2022/01/20 12:39:28;;;;;;;20.50;3.22;;;4.20;99.90;;;;;;5053338;28;20385;-61
2022/01/20 12:42:04;;;;;;;21.42;3.58;;;4.10;99.90;;;;;;5055546;28;20051;-61
2022/01/20 12:44:46;;;;;;;16.60;2.88;;;4.10;99.90;;;;;;5052167;28;20053;-61
2022/01/20 12:47:12;;;;;;;14.73;3.30;;;4.00;99.90;;;;;;5053236;28;20045;-62
2022/01/20 12:49:38;;;;;;;16.85;2.90;;;4.10;99.90;;;;;;5053549;28;20037;-60
2022/01/20 12:52:06;;;;;;;20.90;2.75;;;4.00;99.90;;;;;;5052313;28;20049;-61
2022/01/20 12:54:34;;;;;;;16.42;2.90;;;4.10;99.90;;;;;;5058467;28;20082;-61
2022/01/20 12:57:09;;;;;;;14.40;2.85;;;4.10;99.90;;;;;;5062110;28;20045;-61
2022/01/20 12:59:37;;;;;;;10.35;2.95;;;4.20;99.90;;;;;;5061394;28;20041;-60
2022/01/20 13:02:19;;;;;;;14.63;2.90;;;4.20;99.90;;;;;;5062586;28;20132;-61
2022/01/20 13:04:45;;;;;;;17.38;2.90;;;4.30;99.90;;;;;;5059989;28;20049;-61
2022/01/20 13:07:15;;;;;;;14.00;2.33;;;4.30;99.90;;;;;;5059387;28;20063;-60
2022/01/20 13:09:43;;;;;;;13.32;2.47;;;4.40;99.90;;;;;;5060152;28;20053;-60
2022/01/20 13:12:11;;;;;;;18.25;2.70;;;4.30;99.90;;;;;;5075811;28;20127;-59
2022/01/20 13:14:46;;;;;;;14.52;2.67;;;4.30;99.90;;;;;;5076096;28;20040;-60
2022/01/20 13:17:39;;;;;;;11.13;2.10;;;4.40;99.90;;;;;;5064640;28;20053;-60
2022/01/20 13:20:19;;;;;;;14.00;2.15;;;4.40;99.90;;;;;;5055240;28;20048;-60
2022/01/20 13:22:55;;;;;;;19.67;2.63;;;4.50;99.90;;;;;;5060150;28;20079;-61
2022/01/20 13:29:04;;;;;;;14.60;2.67;;;4.60;99.90;;;;;;5070563;28;20408;-60
2022/01/20 13:31:31;;;;;;;9.25;2.17;;;4.60;99.90;;;;;;5076453;28;20212;-59
2022/01/20 13:34:11;;;;;;;10.35;1.90;;;4.50;99.90;;;;;;5059728;28;20052;-62
2022/01/20 13:36:43;;;;;;;9.15;1.52;;;4.40;99.90;;;;;;5076144;28;20048;-60
2022/01/20 13:39:09;;;;;;;9.68;1.60;;;4.10;99.90;;;;;;5076313;28;20051;-61
2022/01/20 13:41:35;;;;;;;8.68;1.40;;;4.00;99.90;;;;;;5057016;28;20055;-62
2022/01/20 13:47:09;;;;;;;12.75;1.50;;;3.70;99.90;;;;;;5062820;28;20557;-70
2022/01/20 13:49:35;;;;;;;9.85;1.90;;;3.70;99.90;;;;;;5064027;28;20036;-61
2022/01/20 13:52:06;;;;;;;9.30;1.83;;;3.60;99.90;;;;;;5073099;28;20452;-62
2022/01/20 13:54:41;;;;;;;7.80;1.83;;;3.60;99.90;;;;;;5076469;28;20044;-61
2022/01/20 13:57:07;;;;;;;9.18;2.15;;;3.60;99.90;;;;;;5075873;28;20080;-60
2022/01/20 13:59:33;;;;;;;15.23;2.03;;;3.70;99.90;;;;;;5076382;28;20107;-60
2022/01/20 14:01:59;;;;;;;8.95;2.08;;;3.80;99.90;;;;;;5075987;28;20045;-62
2022/01/20 14:04:25;;;;;;;10.73;2.05;;;3.80;99.90;;;;;;5075781;28;20056;-65
2022/01/20 14:06:51;;;;;;;8.48;1.63;;;3.70;99.90;;;;;;5074520;28;20131;-60
2022/01/20 14:09:17;;;;;;;5.78;1.27;;;3.50;99.90;;;;;;5075637;28;20488;-60
2022/01/20 14:11:43;;;;;;;6.18;1.27;;;3.40;99.90;;;;;;5065963;28;20530;-67
2022/01/20 14:14:11;;;;;;;7.38;1.30;;;3.20;99.90;;;;;;5064134;28;20056;-60
2022/01/20 14:16:37;;;;;;;12.52;1.40;;;3.00;99.90;;;;;;5056682;28;20051;-61
2022/01/20 14:19:04;;;;;;;11.43;1.73;;;3.00;99.90;;;;;;5055403;28;20061;-61
2022/01/20 14:21:32;;;;;;;7.53;1.50;;;2.90;99.90;;;;;;5055355;28;20045;-60
2022/01/20 14:23:58;;;;;;;9.75;2.00;;;2.90;99.90;;;;;;5065195;28;20049;-61
2022/01/20 14:26:29;;;;;;;11.85;1.80;;;2.90;99.90;;;;;;5064012;28;20110;-62
2022/01/20 14:28:55;;;;;;;11.50;2.03;;;2.90;99.90;;;;;;5064672;28;20420;-61
2022/01/20 14:31:21;;;;;;;13.20;1.92;;;3.00;99.90;;;;;;5064212;28;20097;-61
2022/01/20 14:33:46;;;;;;;15.57;2.55;;;3.10;99.90;;;;;;5065622;28;20047;-61
2022/01/20 14:36:12;;;;;;;10.75;2.00;;;3.20;99.90;;;;;;5064271;28;20121;-61
2022/01/20 14:38:37;;;;;;;15.25;2.83;;;3.20;99.90;;;;;;5065603;28;20378;-61
2022/01/20 14:41:28;;;;;;;14.82;2.45;;;3.20;99.90;;;;;;5064257;28;20041;-63
2022/01/20 14:43:53;;;;;;;14.98;2.22;;;3.20;99.90;;;;;;5066051;28;20041;-60
2022/01/20 14:46:19;;;;;;;13.75;2.28;;;3.20;99.90;;;;;;5063138;28;20276;-61
2022/01/20 14:48:45;;;;;;;17.27;2.92;;;3.30;99.90;;;;;;5062343;28;20044;-61
2022/01/20 14:51:11;;;;;;;20.88;3.00;;;3.30;99.90;;;;;;5064524;28;20485;-62
2022/01/20 14:53:36;;;;;;;13.05;2.05;;;3.30;99.90;;;;;;5063806;28;20048;-62
2022/01/20 14:56:03;;;;;;;18.55;3.10;;;3.40;99.90;;;;;;5064497;28;20041;-62
2022/01/20 14:58:29;;;;;;;;;;;3.40;99.90;;;;;;5063643;28;20064;-62
2022/01/20 15:00:55;;;;;;;15.27;2.38;;;3.50;99.90;;;;;;5065198;28;19927;-61
2022/01/20 15:03:21;;;;;;;15.88;3.17;;;3.40;99.90;;;;;;5062988;28;20041;-62
2022/01/20 15:05:47;;;;;;;20.27;2.60;;;3.50;99.90;;;;;;5063301;28;20054;-62
2022/01/20 15:08:13;;;;;;;16.67;2.47;;;3.40;99.90;;;;;;5065112;28;20044;-61
2022/01/20 15:10:39;;;;;;;18.17;2.95;;;3.40;99.90;;;;;;5062863;28;20393;-61
2022/01/20 15:13:04;;;;;;;15.48;2.72;;;3.40;99.90;;;;;;5063569;28;20044;-61
2022/01/20 15:15:32;;;;;;;16.83;2.65;;;3.40;99.90;;;;;;5063879;28;20438;-63
2022/01/20 15:17:58;;;;;;;19.15;2.78;;;3.40;99.90;;;;;;5061606;28;20469;-62
2022/01/20 15:20:24;;;;;;;12.45;2.20;;;3.50;99.90;;;;;;5063019;28;20124;-59
2022/01/20 15:22:50;;;;;;;15.65;2.50;;;3.50;99.90;;;;;;5061850;28;20037;-60
2022/01/20 15:25:15;;;;;;;15.00;2.35;;;3.50;99.90;;;;;;5064173;28;20085;-61
2022/01/20 15:27:41;;;;;;;15.30;2.97;;;3.50;99.90;;;;;;5061691;28;20052;-61
2022/01/20 15:30:08;;;;;;;19.88;3.03;;;3.50;99.90;;;;;;5055029;28;20037;-61
2022/01/20 15:32:34;;;;;;;14.20;2.22;;;3.40;99.90;;;;;;5063426;28;20088;-61
2022/01/20 15:34:59;;;;;;;13.05;2.88;;;3.40;99.90;;;;;;5058864;28;20080;-61
2022/01/20 15:37:25;;;;;;;18.30;2.65;;;3.40;99.90;;;;;;5054151;28;20045;-61
2022/01/20 15:39:50;;;;;;;15.05;2.88;;;3.40;99.90;;;;;;5052863;28;20464;-61
2022/01/20 15:42:16;;;;;;;17.73;2.75;;;3.30;99.90;;;;;;5054274;28;20056;-60
2022/01/20 15:44:42;;;;;;;11.50;2.30;;;3.30;99.90;;;;;;5054007;28;20041;-61
2022/01/20 15:47:07;;;;;;;12.43;2.10;;;3.20;99.90;;;;;;5062028;28;20045;-61
2022/01/20 15:49:33;;;;;;;10.23;2.35;;;3.30;99.90;;;;;;5046446;28;20041;-61
2022/01/20 15:51:59;;;;;;;8.00;1.48;;;3.30;99.90;;;;;;5053640;28;20076;-60
2022/01/20 15:54:30;;;;;;;10.23;2.20;;;3.30;99.90;;;;;;5058761;28;20040;-63
2022/01/20 15:56:55;;;;;;;14.25;2.50;;;3.20;99.90;;;;;;5067185;28;20041;-60
2022/01/20 15:59:21;;;;;;;13.63;2.05;;;3.20;99.90;;;;;;5059436;28;20049;-62
2022/01/20 16:01:47;;;;;;;7.78;1.80;;;3.10;99.90;;;;;;5053539;28;20111;-62
2022/01/20 16:04:14;;;;;;;12.52;2.00;;;3.10;99.90;;;;;;5054041;28;20057;-61
2022/01/20 16:06:40;;;;;;;7.22;1.58;;;3.00;99.90;;;;;;5053541;28;20051;-61
2022/01/20 16:09:06;;;;;;;9.85;2.10;;;3.00;99.90;;;;;;5053640;28;20041;-61
2022/01/20 16:11:31;;;;;;;11.65;2.42;;;2.90;99.90;;;;;;5053597;28;20507;-61
2022/01/20 16:13:57;;;;;;;12.98;2.10;;;2.90;99.90;;;;;;5052442;28;20052;-61
2022/01/20 16:16:23;;;;;;;13.13;2.20;;;2.90;99.90;;;;;;5052463;28;20120;-62
2022/01/20 16:18:49;;;;;;;9.90;1.70;;;2.90;99.90;;;;;;5053158;28;20055;-61
2022/01/20 16:21:16;;;;;;;14.68;2.30;;;2.90;99.90;;;;;;5053307;28;20052;-61
2022/01/20 16:23:46;;;;;;;16.95;2.47;;;2.90;99.90;;;;;;5053392;28;20053;-60
2022/01/20 16:26:13;;;;;;;14.82;2.50;;;2.90;99.90;;;;;;5052857;28;20049;-59
2022/01/20 16:28:40;;;;;;;13.90;2.90;;;2.80;99.90;;;;;;5053263;28;20045;-60
2022/01/20 16:31:05;;;;;;;;;;;2.80;99.90;;;;;;5054179;28;20385;-60
2022/01/20 16:33:31;;;;;;;18.40;3.10;;;2.80;99.90;;;;;;5053381;28;19932;-60
2022/01/20 16:35:57;;;;;;;17.15;2.88;;;2.80;99.90;;;;;;5053580;28;20080;-59
2022/01/20 16:38:22;;;;;;;15.15;3.00;;;2.80;99.90;;;;;;5054074;28;20045;-60
2022/01/20 16:40:48;;;;;;;16.80;2.63;;;2.80;99.90;;;;;;5054845;28;20186;-60
2022/01/20 16:43:14;;;;;;;21.67;3.38;;;2.80;99.90;;;;;;5056367;28;20041;-60
2022/01/20 16:45:39;;;;;;;11.18;2.45;;;2.90;99.90;;;;;;5056921;28;20052;-60
2022/01/20 16:48:05;;;;;;;20.83;3.05;;;2.90;99.90;;;;;;5057255;28;20048;-61
2022/01/20 16:50:31;;;;;;;16.23;3.22;;;3.00;99.90;;;;;;5057341;28;20532;-61
2022/01/20 16:52:57;;;;;;;21.88;3.30;;;3.00;99.90;;;;;;5056155;28;20075;-61
2022/01/20 16:55:22;;;;;;;18.20;2.53;;;3.00;99.90;;;;;;5055692;28;20072;-62
2022/01/20 16:57:48;;;;;;;18.80;3.17;;;2.90;99.90;;;;;;5056035;28;20049;-61
2022/01/20 17:00:14;;;;;;;20.30;3.28;;;2.90;99.90;;;;;;5057207;28;20045;-60
2022/01/20 17:03:03;;;;;;;16.08;2.53;;;2.80;99.90;;;;;;5057066;28;20126;-60
2022/01/20 17:05:29;;;;;;;17.60;2.25;;;2.80;99.90;;;;;;5056459;28;20449;-60
2022/01/20 17:07:55;;;;;;;10.75;2.30;;;2.80;99.90;;;;;;5056914;28;20540;-61
2022/01/20 17:10:21;;;;;;;15.13;2.80;;;2.70;99.90;;;;;;5056794;28;20215;-62
2022/01/20 17:12:46;;;;;;;14.02;2.30;;;2.80;99.90;;;;;;5055468;28;20071;-60
2022/01/20 17:15:12;;;;;;;12.30;2.50;;;2.70;99.90;;;;;;5056460;28;20099;-60
2022/01/20 17:17:38;;;;;;;13.77;2.75;;;2.70;99.90;;;;;;5069902;28;20063;-61
2022/01/20 17:20:04;;;;;;;13.55;2.28;;;2.60;99.90;;;;;;5075215;28;20091;-60
2022/01/20 17:22:30;;;;;;;15.55;2.60;;;2.70;99.90;;;;;;5075880;28;20040;-60
2022/01/20 17:24:56;;;;;;;14.43;2.60;;;2.70;99.90;;;;;;5076269;28;20495;-61
2022/01/20 17:27:21;;;;;;;14.30;2.90;;;2.70;99.90;;;;;;5076459;28;20074;-61
2022/01/20 17:29:47;;;;;;;17.83;3.38;;;2.70;99.90;;;;;;5076304;28;20048;-61
2022/01/20 17:32:14;;;;;;;11.75;2.17;;;2.70;99.90;;;;;;5076423;28;20079;-61
2022/01/20 17:34:39;;;;;;;9.85;1.75;;;2.70;99.90;;;;;;5076379;28;20036;-61
2022/01/20 17:37:05;;;;;;;9.10;2.13;;;2.70;99.90;;;;;;5076154;28;20515;-60
2022/01/20 17:39:31;;;;;;;13.05;2.17;;;2.60;99.90;;;;;;5075943;28;20040;-62
2022/01/20 17:41:56;;;;;;;10.40;1.80;;;2.50;99.90;;;;;;5076274;28;20045;-60
2022/01/20 17:44:22;;;;;;;6.90;1.58;;;2.40;99.90;;;;;;5077004;28;20517;-60
2022/01/20 17:46:48;;;;;;;11.15;1.83;;;2.20;99.90;;;;;;5076104;28;20049;-60
2022/01/20 17:49:13;;;;;;;8.88;1.65;;;2.20;99.90;;;;;;5076124;28;20080;-60
2022/01/20 17:51:39;;;;;;;11.07;1.83;;;2.10;99.90;;;;;;5057849;28;20361;-60
2022/01/20 17:54:06;;;;;;;8.43;2.17;;;2.00;99.90;;;;;;5075943;28;20056;-60
2022/01/20 17:56:32;;;;;;;11.13;1.92;;;2.00;99.90;;;;;;5075950;28;20044;-61
2022/01/20 17:58:58;;;;;;;11.82;2.22;;;1.90;99.90;;;;;;5076008;28;20384;-59
2022/01/20 18:01:23;;;;;;;9.90;2.42;;;1.90;99.90;;;;;;5075784;28;20051;-60
2022/01/20 18:03:49;;;;;;;16.95;2.33;;;1.90;99.90;;;;;;5075979;28;20396;-59
2022/01/20 18:06:15;;;;;;;14.23;3.00;;;1.90;99.90;;;;;;5076120;28;20512;-60
2022/01/20 18:08:41;;;;;;;12.90;2.38;;;1.90;99.90;;;;;;5075794;28;20050;-60
2022/01/20 18:11:07;;;;;;;;;;;1.90;99.90;;;;;;5076878;28;20067;-60
2022/01/20 18:13:33;;;;;;;10.35;2.10;;;2.00;99.90;;;;;;5075793;28;19920;-60
2022/01/20 18:15:59;;;;;;;15.55;2.67;;;2.00;99.90;;;;;;5074913;28;20045;-61
2022/01/20 18:18:26;;;;;;;13.20;2.53;;;2.10;99.90;;;;;;5021209;28;20060;-60
2022/01/20 18:20:52;;;;;;;17.20;2.65;;;2.10;99.90;;;;;;5055349;28;20488;-61
2022/01/20 18:23:17;;;;;;;20.23;2.22;;;2.20;99.90;;;;;;5055497;28;20049;-60
2022/01/20 18:25:45;;;;;;;14.07;2.00;;;2.30;99.90;;;;;;5055431;28;20052;-60
2022/01/20 18:28:10;;;;;;;10.18;2.30;;;2.30;99.90;;;;;;5055379;28;20142;-60
2022/01/20 18:30:37;;;;;;;18.13;3.20;;;2.30;99.90;;;;;;5054346;28;20080;-60
2022/01/20 18:33:03;;;;;;;13.90;2.67;;;2.40;99.90;;;;;;5055075;28;20417;-59
2022/01/20 18:35:30;;;;;;;13.65;2.70;;;2.40;99.90;;;;;;5053915;28;20130;-60
2022/01/20 18:37:56;;;;;;;17.48;2.92;;;2.40;99.90;;;;;;5054941;28;20178;-60
2022/01/20 18:40:22;;;;;;;;;;;2.50;99.90;;;;;;5055493;28;20045;-61
2022/01/20 18:42:48;;;;;;;13.73;2.90;;;2.50;99.90;;;;;;5055025;28;19961;-61
2022/01/20 18:45:16;;;;;;;16.48;2.70;;;2.50;99.90;;;;;;5054596;28;20041;-60
2022/01/20 18:47:46;;;;;;;14.07;3.28;;;2.50;99.90;;;;;;5054852;28;20393;-61
2022/01/20 18:50:14;;;;;;;19.73;3.03;;;2.50;99.90;;;;;;5053871;28;20131;-61
2022/01/20 18:52:40;;;;;;;15.13;2.92;;;2.50;99.90;;;;;;5054843;28;20048;-62
2022/01/20 18:55:07;;;;;;;13.85;2.97;;;2.60;99.90;;;;;;5054808;28;20424;-60
2022/01/20 18:57:33;;;;;;;17.55;2.65;;;2.60;99.90;;;;;;5054695;28;20174;-60
2022/01/20 18:59:59;;;;;;;14.60;2.53;;;2.70;99.90;;;;;;5053411;28;20500;-61
2022/01/20 19:02:25;;;;;;;17.67;2.30;;;2.70;99.90;;;;;;5054389;28;20056;-59
2022/01/20 19:04:53;;;;;;;19.02;2.40;;;2.70;99.90;;;;;;5054259;28;20057;-60
2022/01/20 19:07:18;;;;;;;21.92;2.83;;;2.80;99.90;;;;;;5053812;28;20063;-61
2022/01/20 19:09:44;;;;;;;24.70;3.20;;;2.80;99.90;;;;;;5054486;28;20041;-60
2022/01/20 19:12:11;;;;;;;16.27;2.88;;;2.80;99.90;;;;;;5055113;28;20128;-61
2022/01/20 19:14:37;;;;;;;13.80;2.35;;;2.80;99.90;;;;;;5055083;28;20049;-60
2022/01/20 19:17:03;;;;;;;20.75;3.20;;;2.80;99.90;;;;;;5063891;28;20059;-60
2022/01/20 19:19:29;;;;;;;17.25;3.25;;;2.80;99.90;;;;;;5074381;28;20059;-60
2022/01/20 19:21:55;;;;;;;24.25;3.28;;;2.80;99.90;;;;;;5074584;28;20119;-60
2022/01/20 19:24:21;;;;;;;;;;;2.90;99.90;;;;;;5074700;28;20045;-62
2022/01/20 19:26:47;;;;;;;16.10;2.95;;;2.80;99.90;;;;;;5074105;28;19920;-61
2022/01/20 19:29:13;;;;;;;17.08;3.45;;;2.80;99.90;;;;;;5074128;28;20090;-60
2022/01/20 19:31:38;;;;;;;17.45;3.08;;;2.80;99.90;;;;;;5074393;28;20048;-60
2022/01/20 19:34:04;;;;;;;13.00;2.85;;;2.80;99.90;;;;;;5074107;28;20389;-60
2022/01/20 19:36:30;;;;;;;16.30;3.10;;;2.80;99.90;;;;;;5074366;28;20048;-60
2022/01/20 19:38:55;;;;;;;13.25;2.20;;;2.80;99.90;;;;;;5073962;28;20129;-61
2022/01/20 19:41:22;;;;;;;16.52;2.85;;;2.80;99.90;;;;;;5073294;28;20050;-60
2022/01/20 19:43:47;;;;;;;14.43;2.65;;;2.80;99.90;;;;;;5074849;28;20377;-60
2022/01/20 19:46:14;;;;;;;16.23;2.70;;;2.80;99.90;;;;;;5074095;28;20044;-61
2022/01/20 19:48:40;;;;;;;12.00;2.13;;;2.80;99.90;;;;;;5074570;28;20520;-60
2022/01/20 19:51:06;;;;;;;11.52;2.20;;;2.80;99.90;;;;;;5073899;28;20091;-60
2022/01/20 19:53:33;;;;;;;11.68;2.40;;;2.70;99.90;;;;;;5073962;28;20088;-60
2022/01/20 19:55:58;;;;;;;;;;;2.80;99.90;;;;;;5074387;28;20106;-61
2022/01/20 19:58:24;;;;;;;13.20;2.15;;;2.70;99.90;;;;;;5073007;28;20399;-61
2022/01/20 20:00:50;;;;;;;15.07;2.05;;;2.80;99.90;;;;;;5072847;28;20048;-60
2022/01/20 20:03:16;;;;;;;;;;;2.70;99.90;;;;;;5073956;28;20382;-60
2022/01/20 20:05:45;;;;;;;14.05;2.50;;;2.70;99.90;;;;;;5073253;28;19926;-61
2022/01/20 20:08:12;;;;;;;13.32;2.60;;;2.70;99.90;;;;;;5072575;28;20052;-62
2022/01/20 20:10:39;;;;;;;12.75;2.28;;;2.70;99.90;;;;;;5073499;28;20063;-59
2022/01/20 20:13:05;;;;;;;15.52;2.63;;;2.70;99.90;;;;;;5073975;28;20060;-59
2022/01/20 20:15:31;;;;;;;13.82;2.78;;;2.70;99.90;;;;;;5073414;28;20048;-60
2022/01/20 20:17:59;;;;;;;17.17;2.65;;;2.80;99.90;;;;;;5055367;28;20473;-60
2022/01/20 20:20:26;;;;;;;21.90;2.95;;;2.70;99.90;;;;;;5054033;28;20068;-58
2022/01/20 20:22:52;;;;;;;20.10;2.80;;;2.70;99.90;;;;;;5053430;28;20044;-61
2022/01/20 20:25:19;;;;;;;;;;;2.70;99.90;;;;;;5052760;28;20053;-59
2022/01/20 20:27:46;;;;;;;12.63;2.50;;;2.60;99.90;;;;;;5053266;28;19920;-61
2022/01/20 20:30:13;;;;;;;15.77;2.50;;;2.70;99.90;;;;;;5063581;28;20049;-61
2022/01/20 20:32:38;;;;;;;17.42;2.88;;;2.70;99.90;;;;;;5060801;28;20116;-61
2022/01/20 20:35:04;;;;;;;15.50;2.40;;;2.80;99.90;;;;;;5067601;28;20458;-61
2022/01/20 20:37:30;;;;;;;14.68;2.30;;;2.90;99.90;;;;;;5073277;28;20048;-61
2022/01/20 20:39:56;;;;;;;14.00;2.45;;;2.90;99.90;;;;;;5073468;28;20047;-61
2022/01/20 20:42:22;;;;;;;12.30;2.30;;;2.90;99.90;;;;;;5072850;28;20040;-60
2022/01/20 20:44:48;;;;;;;;;;;3.00;99.90;;;;;;5073545;28;20514;-60
2022/01/20 20:47:14;;;;;;;19.00;2.17;;;3.00;99.90;;;;;;5073269;28;20122;-60
2022/01/20 20:49:39;;;;;;;18.17;2.63;;;3.00;99.90;;;;;;5072560;28;20044;-60
2022/01/20 20:52:08;;;;;;;19.55;2.88;;;3.00;99.90;;;;;;5072745;28;20044;-61
2022/01/20 20:54:34;;;;;;;13.35;2.17;;;3.00;99.90;;;;;;5073130;28;20036;-61
2022/01/20 20:57:00;;;;;;;;;;;3.00;99.90;;;;;;5072490;28;20045;-60
2022/01/20 20:59:26;;;;;;;19.60;3.28;;;3.10;99.90;;;;;;5073085;28;19920;-61
2022/01/20 21:01:53;;;;;;;17.08;2.75;;;3.10;99.90;;;;;;5073636;28;20091;-60
2022/01/20 21:04:20;;;;;;;16.85;2.40;;;3.10;99.90;;;;;;5073013;28;20052;-61
2022/01/20 21:06:48;;;;;;;16.52;2.78;;;3.10;99.90;;;;;;5071716;28;20493;-59
2022/01/20 21:09:14;;;;;;;17.15;2.80;;;3.10;99.90;;;;;;5073635;28;20415;-59
2022/01/20 21:11:39;;;;;;;13.70;2.25;;;3.00;99.90;;;;;;5072816;28;20048;-61
2022/01/20 21:14:05;;;;;;;11.43;1.85;;;3.10;99.90;;;;;;5073054;28;20491;-59
2022/01/20 21:16:31;;;;;;;20.08;2.90;;;3.00;99.90;;;;;;5066909;28;20055;-60
2022/01/20 21:18:57;;;;;;;18.92;2.75;;;3.00;99.90;;;;;;5051402;28;20127;-59
2022/01/20 21:21:23;;;;;;;19.00;2.60;;;3.00;99.90;;;;;;5053161;28;20048;-60
2022/01/20 21:23:48;;;;;;;14.60;2.50;;;2.90;99.90;;;;;;5053001;28;20482;-59
2022/01/20 21:26:15;;;;;;;14.60;3.10;;;2.90;99.90;;;;;;5053816;28;20484;-60